Terminal Aerodrome Forecast
Issued by NWS

Current Version | Previous Version | Text Only | Print | Product List | Glossary On
Versions: 1 2 3 4 5 6 7 8 9 10 11 12 13 14 15 16 17 18 19 20 21
429
FTUS44 KEPZ 162326
TAFDMN
TAF
KDMN 162326Z 1700/1724 24008KT P6SM SCT060 BKN120
     FM171000 07007KT P6SM SCT060 BKN120
     FM171100 VRB04KT 3SM BR SCT004 SCT015 BKN050
     FM171500 06007KT P6SM FEW020 SCT050 BKN100
     FM172000 09008KT P6SM VCSH BKN060 BKN110=

USA.gov is the U.S. government's official web portal to all federal, state and local government web resources and services.